Time;durP1;ratioP1;P1;durP2;ratioP2;P2;SDS_P1;SDS_P2;PMS_P1;PMS_P2;Temp;Humidity;BMP_temperature;BMP_pressure;BME280_temperature;BME280_humidity;BME280_pressure;Samples;Min_cycle;Max_cycle;Signal;HPM_P1;HPM_P2
2021/06/12 00:00:15;;;;;;;2.80;1.50;;;23.80;52.30;;;;;;5011062;28;20391;-61
2021/06/12 00:02:40;;;;;;;2.08;1.58;;;23.80;52.30;;;;;;5010746;28;20436;-61
2021/06/12 00:05:08;;;;;;;2.08;1.45;;;23.80;52.40;;;;;;5010831;28;20416;-61
2021/06/12 00:07:33;;;;;;;1.77;1.30;;;23.80;52.40;;;;;;5008679;28;20460;-61
2021/06/12 00:10:00;;;;;;;2.30;1.42;;;23.80;52.60;;;;;;5010457;28;20952;-61
2021/06/12 00:12:26;;;;;;;1.95;1.55;;;23.80;52.50;;;;;;5011699;28;20403;-61
2021/06/12 00:14:51;;;;;;;2.22;1.42;;;23.80;52.60;;;;;;5014273;28;20389;-61
2021/06/12 00:17:18;;;;;;;2.40;1.50;;;23.70;52.50;;;;;;5014504;28;20396;-61
2021/06/12 00:19:44;;;;;;;2.10;1.40;;;23.70;52.50;;;;;;5015493;28;20388;-61
2021/06/12 00:22:10;;;;;;;2.50;1.35;;;23.70;52.40;;;;;;5013063;28;20432;-61
2021/06/12 00:24:35;;;;;;;3.47;1.50;;;23.70;52.40;;;;;;5015115;28;20491;-61
2021/06/12 00:27:01;;;;;;;2.93;1.30;;;23.70;52.40;;;;;;5015428;28;20935;-61
2021/06/12 00:29:27;;;;;;;3.60;1.48;;;23.70;52.50;;;;;;5015472;28;20423;-60
2021/06/12 00:31:52;;;;;;;3.77;1.50;;;23.70;52.50;;;;;;5014917;28;20893;-61
2021/06/12 00:34:18;;;;;;;5.35;1.60;;;23.70;52.50;;;;;;5015006;28;20384;-61
2021/06/12 00:36:44;;;;;;;3.40;1.40;;;23.70;52.50;;;;;;5015219;28;20392;-61
2021/06/12 00:39:09;;;;;;;2.42;1.30;;;23.70;52.50;;;;;;5013943;28;20393;-61
2021/06/12 00:41:35;;;;;;;2.20;1.50;;;23.70;52.50;;;;;;5014792;28;20734;-61
2021/06/12 00:44:01;;;;;;;3.05;1.45;;;23.60;52.50;;;;;;5014329;28;20495;-61
2021/06/12 00:46:26;;;;;;;2.10;1.50;;;23.60;52.50;;;;;;5014510;28;20877;-61
2021/06/12 00:48:53;;;;;;;2.20;1.55;;;23.60;52.50;;;;;;5014945;28;20515;-61
2021/06/12 00:51:21;;;;;;;2.40;1.30;;;23.60;52.40;;;;;;5014662;28;20400;-61
2021/06/12 00:53:46;;;;;;;1.50;1.20;;;23.60;52.50;;;;;;5015041;28;20446;-61
2021/06/12 00:56:17;;;;;;;2.03;1.40;;;23.60;52.50;;;;;;5014230;28;20811;-61
2021/06/12 00:58:44;;;;;;;2.10;1.40;;;23.60;52.50;;;;;;5014757;28;20389;-61
2021/06/12 01:01:12;;;;;;;2.22;1.40;;;23.60;52.50;;;;;;5014640;28;20473;-61
2021/06/12 01:03:40;;;;;;;2.30;1.50;;;23.60;52.50;;;;;;5014649;28;20420;-61
2021/06/12 01:06:11;;;;;;;2.00;1.40;;;23.60;52.50;;;;;;5014224;28;20385;-61
2021/06/12 01:08:38;;;;;;;2.10;1.25;;;23.60;52.50;;;;;;5014608;28;20392;-61
2021/06/12 01:11:05;;;;;;;1.80;1.40;;;23.60;52.50;;;;;;5014615;28;20723;-61
2021/06/12 01:14:04;;;;;;;2.72;1.40;;;23.60;52.50;;;;;;5014783;28;20393;-61
2021/06/12 01:16:54;;;;;;;2.33;1.38;;;23.60;52.50;;;;;;5014193;28;20396;-61
2021/06/12 01:19:38;;;;;;;1.88;1.48;;;23.60;52.50;;;;;;5014486;28;20432;-61
2021/06/12 01:22:18;;;;;;;2.10;1.40;;;23.50;52.50;;;;;;5014058;28;20959;-61
2021/06/12 01:25:04;;;;;;;2.10;1.35;;;23.50;52.50;;;;;;5013891;28;20447;-61
2021/06/12 01:28:00;;;;;;;2.00;1.13;;;23.50;52.50;;;;;;5014258;28;20439;-61
2021/06/12 01:30:31;;;;;;;2.28;1.27;;;23.50;52.50;;;;;;5013925;28;21224;-61
2021/06/12 01:33:04;;;;;;;2.40;1.40;;;23.50;52.50;;;;;;5014165;28;20458;-61
2021/06/12 01:35:38;;;;;;;2.07;1.43;;;23.50;52.50;;;;;;5012360;28;20408;-61
2021/06/12 01:38:05;;;;;;;1.70;1.20;;;23.50;52.50;;;;;;5013314;28;20387;-61
2021/06/12 01:40:36;;;;;;;1.65;1.30;;;23.50;52.50;;;;;;5013482;28;20483;-61
2021/06/12 01:43:04;;;;;;;1.90;1.30;;;23.50;52.50;;;;;;5013817;28;20523;-61
2021/06/12 01:45:29;;;;;;;2.20;1.40;;;23.50;52.50;;;;;;5012415;28;20448;-61
2021/06/12 01:47:56;;;;;;;1.45;1.20;;;23.50;52.50;;;;;;5012451;28;20401;-61
2021/06/12 01:50:24;;;;;;;1.80;1.38;;;23.50;52.50;;;;;;5013529;28;20385;-61
2021/06/12 01:52:51;;;;;;;1.92;1.40;;;23.50;52.50;;;;;;5014024;28;20403;-61
2021/06/12 01:55:20;;;;;;;1.73;1.33;;;23.40;52.50;;;;;;5013537;28;20385;-61
2021/06/12 01:57:46;;;;;;;1.70;1.35;;;23.50;52.50;;;;;;5010760;28;20427;-61
2021/06/12 02:00:13;;;;;;;1.80;1.60;;;23.50;52.50;;;;;;5013265;28;20777;-61
2021/06/12 02:02:41;;;;;;;1.92;1.40;;;23.40;52.50;;;;;;5013399;28;20776;-61
2021/06/12 02:05:12;;;;;;;2.03;1.50;;;23.40;52.50;;;;;;5013461;28;20385;-61
2021/06/12 02:07:39;;;;;;;1.63;1.33;;;23.40;52.50;;;;;;5013404;28;20443;-61
2021/06/12 02:10:07;;;;;;;2.10;1.50;;;23.40;52.50;;;;;;5013128;28;20388;-61
2021/06/12 02:12:35;;;;;;;1.83;1.60;;;23.40;52.50;;;;;;5013054;28;20954;-61
2021/06/12 02:15:03;;;;;;;1.73;1.50;;;23.40;52.60;;;;;;5013091;28;20396;-61
2021/06/12 02:17:31;;;;;;;1.75;1.35;;;23.40;52.50;;;;;;5011900;28;20450;-61
2021/06/12 02:19:57;;;;;;;1.50;1.30;;;23.40;52.50;;;;;;5012995;28;20409;-61
2021/06/12 02:22:23;;;;;;;1.50;1.30;;;23.40;52.50;;;;;;5012709;28;20420;-61
2021/06/12 02:24:49;;;;;;;2.05;1.50;;;23.40;52.40;;;;;;5013060;28;20447;-61
2021/06/12 02:27:19;;;;;;;1.60;1.25;;;23.40;52.50;;;;;;5013089;28;20397;-61
2021/06/12 02:29:46;;;;;;;1.58;1.35;;;23.40;52.50;;;;;;5012997;28;20421;-61
2021/06/12 02:32:14;;;;;;;1.45;1.30;;;23.40;52.50;;;;;;5012395;28;20393;-61
2021/06/12 02:34:40;;;;;;;1.60;1.20;;;23.30;52.50;;;;;;5011971;28;20397;-61
2021/06/12 02:37:06;;;;;;;1.38;1.25;;;23.30;52.50;;;;;;5012774;28;20385;-61
2021/06/12 02:39:33;;;;;;;2.07;1.40;;;23.30;52.50;;;;;;5013261;28;20744;-61
2021/06/12 02:41:59;;;;;;;2.20;1.40;;;23.40;52.50;;;;;;5012238;28;20420;-61
2021/06/12 02:44:25;;;;;;;2.05;1.30;;;23.30;52.50;;;;;;5012434;28;20820;-61
2021/06/12 02:46:53;;;;;;;1.67;1.30;;;23.30;52.50;;;;;;5011627;28;20393;-61
2021/06/12 02:49:23;;;;;;;1.83;1.38;;;23.30;52.50;;;;;;5012733;28;20479;-61
2021/06/12 02:51:55;;;;;;;1.60;1.30;;;23.30;52.50;;;;;;5028002;28;20396;-61
2021/06/12 02:54:24;;;;;;;1.83;1.40;;;23.30;52.50;;;;;;5010960;28;20400;-61
2021/06/12 02:56:52;;;;;;;1.45;1.30;;;23.30;52.50;;;;;;5012231;28;20389;-61
2021/06/12 02:59:19;;;;;;;1.67;1.52;;;23.30;52.50;;;;;;5012296;28;20450;-61
2021/06/12 03:01:46;;;;;;;1.70;1.40;;;23.30;52.60;;;;;;5012367;28;20420;-60
2021/06/12 03:04:15;;;;;;;1.60;1.42;;;23.30;52.50;;;;;;5012079;28;20400;-61
2021/06/12 03:06:42;;;;;;;1.80;1.30;;;23.30;52.60;;;;;;5011102;28;20528;-61
2021/06/12 03:09:13;;;;;;;1.90;1.45;;;23.30;52.60;;;;;;5012555;28;20400;-61
2021/06/12 03:11:40;;;;;;;2.25;1.80;;;23.30;52.70;;;;;;5012351;28;20388;-61
2021/06/12 03:14:06;;;;;;;2.05;1.75;;;23.30;52.90;;;;;;5012144;28;20880;-61
2021/06/12 03:16:32;;;;;;;2.38;2.13;;;23.30;53.00;;;;;;5011862;28;20480;-61
2021/06/12 03:18:59;;;;;;;3.17;2.10;;;23.30;53.20;;;;;;5012250;28;20966;-60
2021/06/12 03:21:26;;;;;;;3.28;2.30;;;23.30;53.70;;;;;;5012265;28;20425;-60
2021/06/12 03:23:53;;;;;;;4.60;1.98;;;23.30;52.30;;;;;;5012244;28;20405;-60
2021/06/12 03:26:20;;;;;;;2.60;2.00;;;23.30;52.10;;;;;;5011695;28;20439;-61
2021/06/12 03:28:47;;;;;;;5.47;1.90;;;23.20;52.90;;;;;;5012190;28;20396;-61
2021/06/12 03:31:13;;;;;;;4.83;2.30;;;23.20;52.50;;;;;;5012027;28;20484;-61
2021/06/12 03:33:39;;;;;;;4.88;2.30;;;23.30;52.50;;;;;;5011968;28;20435;-61
2021/06/12 03:36:06;;;;;;;4.10;2.10;;;23.20;52.70;;;;;;5011633;28;20803;-61
2021/06/12 03:38:34;;;;;;;2.92;2.17;;;23.30;52.80;;;;;;5011734;28;20436;-60
2021/06/12 03:41:02;;;;;;;3.35;1.80;;;23.30;53.00;;;;;;5011653;28;20397;-61
2021/06/12 03:43:29;;;;;;;3.07;1.97;;;23.30;53.00;;;;;;5011297;28;20631;-60
2021/06/12 03:45:56;;;;;;;8.10;1.90;;;23.30;53.50;;;;;;5011719;28;20769;-60
2021/06/12 03:48:23;;;;;;;3.00;2.00;;;23.20;53.50;;;;;;5011364;28;20421;-60
2021/06/12 03:50:51;;;;;;;11.88;2.25;;;23.30;53.30;;;;;;5011760;28;20936;-61
2021/06/12 03:53:19;;;;;;;4.43;2.00;;;23.20;53.50;;;;;;5011700;28;20401;-64
2021/06/12 03:55:49;;;;;;;3.50;1.80;;;23.30;53.40;;;;;;5011720;28;20385;-62
2021/06/12 03:58:16;;;;;;;2.60;1.70;;;23.20;53.00;;;;;;5011271;28;20876;-61
2021/06/12 04:00:44;;;;;;;3.65;2.00;;;23.20;53.00;;;;;;5011515;28;20403;-60
2021/06/12 04:03:10;;;;;;;3.63;2.28;;;23.20;53.20;;;;;;5011673;28;20420;-60
2021/06/12 04:05:35;;;;;;;2.90;1.95;;;23.20;54.60;;;;;;5011605;28;20400;-60
2021/06/12 04:08:01;;;;;;;7.22;2.47;;;23.20;54.10;;;;;;5011309;28;20397;-61
2021/06/12 04:10:27;;;;;;;5.22;2.13;;;23.20;54.60;;;;;;5011187;28;20464;-61
2021/06/12 04:12:52;;;;;;;3.63;2.20;;;23.30;54.00;;;;;;5011493;28;20905;-60
2021/06/12 04:15:18;;;;;;;4.57;2.17;;;23.20;54.40;;;;;;5011402;28;20392;-61
2021/06/12 04:17:44;;;;;;;3.58;2.22;;;23.20;54.40;;;;;;5011573;28;20401;-61
2021/06/12 04:20:13;;;;;;;3.90;2.10;;;23.30;54.60;;;;;;5011247;28;20408;-60
2021/06/12 04:22:40;;;;;;;3.33;2.03;;;23.30;54.50;;;;;;5011219;28;20423;-60
2021/06/12 04:25:06;;;;;;;3.85;2.15;;;23.30;54.20;;;;;;5011015;28;20388;-60
2021/06/12 04:27:33;;;;;;;2.92;2.20;;;23.30;54.90;;;;;;5010722;28;20893;-61
2021/06/12 04:29:59;;;;;;;3.40;2.10;;;23.30;55.10;;;;;;5011606;28;20443;-60
2021/06/12 04:32:24;;;;;;;4.18;2.47;;;23.20;54.90;;;;;;5010852;28;20404;-60
2021/06/12 04:34:50;;;;;;;3.53;2.15;;;23.20;54.30;;;;;;5011448;28;20463;-65
2021/06/12 04:37:16;;;;;;;4.20;2.50;;;23.20;54.70;;;;;;5009989;28;20423;-64
2021/06/12 04:39:42;;;;;;;4.95;2.50;;;23.20;54.30;;;;;;5011273;28;20396;-64
2021/06/12 04:42:09;;;;;;;4.20;2.20;;;23.20;54.40;;;;;;5010682;28;20412;-65
2021/06/12 04:44:35;;;;;;;5.40;2.60;;;23.20;54.10;;;;;;5010794;28;20409;-65
2021/06/12 04:47:01;;;;;;;4.32;2.60;;;23.20;54.10;;;;;;5011311;28;20400;-64
2021/06/12 04:49:27;;;;;;;3.28;2.50;;;23.20;54.00;;;;;;5009952;28;20393;-65
2021/06/12 04:51:53;;;;;;;3.97;2.65;;;23.10;54.10;;;;;;5011115;28;20396;-65
2021/06/12 04:54:18;;;;;;;5.97;2.60;;;23.10;54.00;;;;;;5009295;28;20393;-65
2021/06/12 04:56:44;;;;;;;3.08;2.40;;;23.10;54.10;;;;;;5011624;28;20388;-68
2021/06/12 04:59:10;;;;;;;5.35;2.40;;;23.10;54.40;;;;;;5012509;28;20977;-68
2021/06/12 05:01:35;;;;;;;4.47;2.30;;;23.10;54.30;;;;;;5014666;28;20396;-69
2021/06/12 05:04:01;;;;;;;4.37;2.40;;;23.10;54.30;;;;;;5014754;28;20412;-66
2021/06/12 05:06:27;;;;;;;5.13;2.28;;;23.10;54.10;;;;;;5014106;28;20419;-65
2021/06/12 05:08:52;;;;;;;4.32;2.47;;;23.10;54.30;;;;;;5014646;28;20397;-65
2021/06/12 05:11:18;;;;;;;4.07;2.17;;;23.10;54.10;;;;;;5013235;28;20424;-65
2021/06/12 05:13:44;;;;;;;2.67;2.00;;;23.10;54.10;;;;;;5014410;28;20393;-65
2021/06/12 05:16:10;;;;;;;3.50;2.13;;;23.10;54.10;;;;;;5012913;28;20396;-65
2021/06/12 05:18:44;;;;;;;3.20;2.03;;;23.10;53.90;;;;;;5014075;28;20439;-65
2021/06/12 05:21:10;;;;;;;3.45;2.40;;;23.10;53.90;;;;;;5014412;28;20387;-65
2021/06/12 05:23:36;;;;;;;3.50;2.00;;;23.10;53.80;;;;;;5014281;28;20820;-65
2021/06/12 05:26:04;;;;;;;4.00;2.30;;;23.10;53.70;;;;;;5014239;28;20896;-64
2021/06/12 05:28:30;;;;;;;2.60;2.05;;;23.10;53.70;;;;;;5013670;28;20459;-65
2021/06/12 05:30:56;;;;;;;2.90;2.00;;;23.10;53.60;;;;;;5012924;28;20397;-65
2021/06/12 05:33:23;;;;;;;3.20;1.90;;;23.10;53.50;;;;;;5014125;28;20392;-65
2021/06/12 05:35:50;;;;;;;2.90;2.20;;;23.10;53.50;;;;;;5014219;28;20479;-66
2021/06/12 05:38:16;;;;;;;2.23;2.00;;;23.10;53.50;;;;;;5013828;28;20410;-65
2021/06/12 05:40:42;;;;;;;2.72;2.22;;;23.20;53.50;;;;;;5013536;28;20531;-65
2021/06/12 05:43:08;;;;;;;2.85;2.00;;;23.20;53.50;;;;;;5011995;28;20428;-65
2021/06/12 05:45:34;;;;;;;2.38;2.05;;;23.20;53.50;;;;;;5013712;28;20466;-65
2021/06/12 05:47:59;;;;;;;2.40;1.85;;;23.20;53.30;;;;;;5013897;28;20495;-64
2021/06/12 05:50:25;;;;;;;2.10;1.90;;;23.10;53.40;;;;;;5013155;28;20412;-66
2021/06/12 05:52:51;;;;;;;2.13;1.88;;;23.10;53.30;;;;;;5013098;28;20412;-65
2021/06/12 05:55:16;;;;;;;2.47;2.10;;;23.20;53.50;;;;;;5012324;28;20789;-65
2021/06/12 05:57:42;;;;;;;2.72;2.10;;;23.20;53.30;;;;;;5013616;28;20439;-65
2021/06/12 06:00:10;;;;;;;2.42;1.92;;;23.20;53.50;;;;;;5011940;28;20431;-65
2021/06/12 06:02:35;;;;;;;2.70;1.80;;;23.20;53.40;;;;;;5013036;28;20488;-65
2021/06/12 06:05:01;;;;;;;2.57;1.87;;;23.10;53.30;;;;;;5013377;28;20400;-65
2021/06/12 06:07:27;;;;;;;2.25;1.77;;;23.20;53.40;;;;;;5013430;28;20385;-65
2021/06/12 06:09:53;;;;;;;1.90;1.70;;;23.10;53.20;;;;;;5010979;28;20393;-65
2021/06/12 06:12:18;;;;;;;2.00;1.70;;;23.20;53.30;;;;;;5011816;28;20392;-65
2021/06/12 06:14:44;;;;;;;2.50;1.80;;;23.10;53.20;;;;;;5013157;28;20452;-68
2021/06/12 06:17:09;;;;;;;2.45;1.77;;;23.10;53.50;;;;;;5013374;28;20400;-65
2021/06/12 06:19:35;;;;;;;2.10;1.90;;;23.10;53.30;;;;;;5011928;28;20432;-65
2021/06/12 06:22:01;;;;;;;2.10;1.77;;;23.20;53.20;;;;;;5013147;28;20444;-65
2021/06/12 06:24:26;;;;;;;2.10;1.60;;;23.10;53.20;;;;;;5012762;28;20395;-65
2021/06/12 06:26:52;;;;;;;1.80;1.58;;;23.10;53.20;;;;;;5013286;28;20397;-64
2021/06/12 06:29:18;;;;;;;1.83;1.55;;;23.10;53.20;;;;;;5013145;28;20784;-65
2021/06/12 06:31:45;;;;;;;1.77;1.60;;;23.10;53.10;;;;;;5012987;28;20451;-65
2021/06/12 06:34:11;;;;;;;2.08;1.80;;;23.10;53.20;;;;;;5012665;28;20731;-64
2021/06/12 06:36:38;;;;;;;1.67;1.58;;;23.10;53.10;;;;;;5011476;28;20912;-65
2021/06/12 06:39:04;;;;;;;1.83;1.70;;;23.10;53.10;;;;;;5012865;28;20400;-65
2021/06/12 06:41:30;;;;;;;1.90;1.60;;;23.10;53.30;;;;;;5011241;28;20435;-66
2021/06/12 06:43:55;;;;;;;1.85;1.52;;;23.10;53.20;;;;;;5011437;28;20467;-65
2021/06/12 06:46:21;;;;;;;1.70;1.60;;;23.10;53.10;;;;;;5012508;28;20385;-67
2021/06/12 06:48:47;;;;;;;2.20;1.60;;;23.10;53.20;;;;;;5012464;28;20397;-66
2021/06/12 06:51:12;;;;;;;1.90;1.57;;;23.10;53.20;;;;;;5012716;28;20535;-65
2021/06/12 06:53:38;;;;;;;1.90;1.60;;;23.10;53.10;;;;;;5012646;28;20460;-65
2021/06/12 06:56:05;;;;;;;1.75;1.50;;;23.10;53.10;;;;;;5012413;28;20404;-64
2021/06/12 06:58:31;;;;;;;1.60;1.50;;;23.10;53.10;;;;;;5011484;28;20428;-64
2021/06/12 07:00:57;;;;;;;2.13;1.70;;;23.10;53.10;;;;;;5012512;28;20470;-64
2021/06/12 07:03:22;;;;;;;1.90;1.63;;;23.10;53.20;;;;;;5012294;28;21010;-64
2021/06/12 07:05:48;;;;;;;2.67;1.58;;;23.10;53.20;;;;;;5012617;28;20393;-65
2021/06/12 07:08:14;;;;;;;1.77;1.50;;;23.10;53.10;;;;;;5012046;28;20389;-64
2021/06/12 07:10:40;;;;;;;1.63;1.30;;;23.10;53.10;;;;;;5012036;28;20381;-64
2021/06/12 07:13:06;;;;;;;1.80;1.60;;;23.10;53.10;;;;;;5012203;28;20393;-65
2021/06/12 07:15:32;;;;;;;1.65;1.40;;;23.10;53.10;;;;;;5010705;28;20392;-64
2021/06/12 07:17:58;;;;;;;1.45;1.30;;;23.10;53.10;;;;;;5012293;28;20405;-64
2021/06/12 07:20:24;;;;;;;1.80;1.50;;;23.10;53.10;;;;;;5011698;28;20524;-65
2021/06/12 07:22:50;;;;;;;1.98;1.58;;;23.10;53.00;;;;;;5011754;28;20435;-65
2021/06/12 07:25:16;;;;;;;1.50;1.40;;;23.10;53.00;;;;;;5012109;28;20389;-64
2021/06/12 07:27:42;;;;;;;1.50;1.30;;;23.10;52.90;;;;;;5012065;28;20447;-64
2021/06/12 07:30:08;;;;;;;1.60;1.50;;;23.10;53.10;;;;;;5012043;28;20932;-64
2021/06/12 07:32:34;;;;;;;1.60;1.33;;;23.10;53.00;;;;;;5011551;28;20397;-65
2021/06/12 07:34:59;;;;;;;1.60;1.50;;;23.20;53.10;;;;;;5011856;28;20385;-65
2021/06/12 07:37:25;;;;;;;1.80;1.40;;;23.10;53.00;;;;;;5012009;28;20455;-65
2021/06/12 07:39:51;;;;;;;1.67;1.30;;;23.20;53.10;;;;;;5012004;28;20381;-64
2021/06/12 07:42:17;;;;;;;1.60;1.50;;;23.10;53.10;;;;;;5011204;28;20424;-64
2021/06/12 07:44:42;;;;;;;1.43;1.30;;;23.10;53.00;;;;;;5011531;28;20415;-64
2021/06/12 07:47:09;;;;;;;1.70;1.50;;;23.20;52.90;;;;;;5011858;28;20396;-64
2021/06/12 07:49:34;;;;;;;1.70;1.50;;;23.20;53.10;;;;;;5011666;28;20737;-64
2021/06/12 07:52:00;;;;;;;1.80;1.50;;;23.20;53.20;;;;;;5010502;28;20397;-65
2021/06/12 07:54:27;;;;;;;1.65;1.50;;;23.20;53.20;;;;;;5011442;28;20488;-64
2021/06/12 07:56:52;;;;;;;2.10;1.60;;;23.20;53.00;;;;;;5011801;28;20393;-65
2021/06/12 07:59:18;;;;;;;1.88;1.65;;;23.20;53.10;;;;;;5011633;28;20389;-65
2021/06/12 08:01:44;;;;;;;1.80;1.50;;;23.20;53.10;;;;;;5011614;28;20405;-64
2021/06/12 08:04:10;;;;;;;2.00;1.80;;;23.20;53.10;;;;;;5011645;28;20402;-65
2021/06/12 08:06:36;;;;;;;1.90;1.60;;;23.20;53.00;;;;;;5009828;28;20397;-65
2021/06/12 08:09:03;;;;;;;1.85;1.60;;;23.20;53.00;;;;;;5011618;28;20507;-65
2021/06/12 08:11:28;;;;;;;2.10;1.60;;;23.20;52.90;;;;;;5011297;28;20447;-65
2021/06/12 08:13:54;;;;;;;1.92;1.75;;;23.20;52.90;;;;;;5011078;28;20397;-65
2021/06/12 08:16:20;;;;;;;1.80;1.60;;;23.20;53.00;;;;;;5011344;28;20393;-65
2021/06/12 08:18:45;;;;;;;1.70;1.60;;;23.20;53.00;;;;;;5009894;28;20893;-64
2021/06/12 08:21:11;;;;;;;1.60;1.50;;;23.20;53.10;;;;;;5011539;28;20396;-64
2021/06/12 08:23:37;;;;;;;1.80;1.52;;;23.20;52.90;;;;;;5009861;28;20427;-64
2021/06/12 08:26:03;;;;;;;1.80;1.60;;;23.30;52.90;;;;;;5010041;28;20385;-65
2021/06/12 08:28:29;;;;;;;1.80;1.50;;;23.30;52.80;;;;;;5009645;28;20396;-64
2021/06/12 08:30:55;;;;;;;1.50;1.35;;;23.30;52.80;;;;;;5008767;28;20459;-65
2021/06/12 08:33:21;;;;;;;1.77;1.52;;;23.30;52.80;;;;;;5011226;28;20397;-64
2021/06/12 08:35:47;;;;;;;1.70;1.60;;;23.30;52.70;;;;;;5029112;28;20384;-65
2021/06/12 08:38:12;;;;;;;1.70;1.60;;;23.30;52.60;;;;;;5013821;28;20408;-64
2021/06/12 08:40:38;;;;;;;1.90;1.60;;;23.30;53.30;;;;;;5013477;28;20376;-65
2021/06/12 08:43:05;;;;;;;1.40;1.30;;;23.30;52.80;;;;;;5013524;28;20812;-65
2021/06/12 08:45:32;;;;;;;2.03;1.65;;;23.30;52.40;;;;;;5013538;28;20955;-65
2021/06/12 08:47:59;;;;;;;1.70;1.40;;;23.30;52.30;;;;;;5012513;28;20408;-64
2021/06/12 08:50:26;;;;;;;1.83;1.43;;;23.30;52.30;;;;;;5012059;28;20451;-65
2021/06/12 08:52:53;;;;;;;1.90;1.70;;;23.30;52.20;;;;;;5013424;28;20446;-65
2021/06/12 08:55:20;;;;;;;1.65;1.55;;;23.30;52.10;;;;;;5013527;28;20446;-64
2021/06/12 08:57:46;;;;;;;1.80;1.70;;;23.30;52.10;;;;;;5013613;28;20424;-64
2021/06/12 09:00:14;;;;;;;1.88;1.50;;;23.30;52.10;;;;;;5013512;28;20443;-65
2021/06/12 09:03:14;;;;;;;1.58;1.40;;;23.30;52.10;;;;;;5013042;28;20459;-64
2021/06/12 09:05:53;;;;;;;2.00;1.50;;;23.20;52.00;;;;;;5013389;28;20474;-65
2021/06/12 09:08:25;;;;;;;1.58;1.45;;;23.30;52.00;;;;;;5013012;28;20451;-64
2021/06/12 09:11:07;;;;;;;2.00;1.75;;;23.30;52.00;;;;;;5012852;28;20397;-65
2021/06/12 09:13:50;;;;;;;1.90;1.60;;;23.30;52.10;;;;;;5013178;28;20403;-64
2021/06/12 09:16:35;;;;;;;1.67;1.30;;;23.30;52.00;;;;;;5011785;28;20427;-66
2021/06/12 09:19:06;;;;;;;2.00;1.80;;;23.20;52.00;;;;;;5013082;28;20956;-65
2021/06/12 09:21:47;;;;;;;2.00;1.60;;;23.30;52.00;;;;;;5014190;28;20397;-65
2021/06/12 09:24:31;;;;;;;1.63;1.50;;;23.30;52.10;;;;;;5013032;28;20444;-65
2021/06/12 09:26:59;;;;;;;1.70;1.48;;;23.20;51.90;;;;;;5014097;28;20385;-64
2021/06/12 09:29:52;;;;;;;1.63;1.50;;;23.20;52.00;;;;;;5013590;28;20408;-65
2021/06/12 09:32:24;;;;;;;1.65;1.55;;;23.20;51.90;;;;;;5012118;28;20385;-65
2021/06/12 09:34:52;;;;;;;1.50;1.40;;;23.20;52.10;;;;;;5012665;28;20418;-64
2021/06/12 09:37:27;;;;;;;2.30;1.70;;;23.20;51.90;;;;;;5013984;28;20381;-65
2021/06/12 09:39:59;;;;;;;1.80;1.60;;;23.20;52.00;;;;;;5013992;28;20738;-64
2021/06/12 09:42:48;;;;;;;1.75;1.60;;;23.20;52.10;;;;;;5013345;28;20916;-65
2021/06/12 09:45:16;;;;;;;1.73;1.63;;;23.20;51.90;;;;;;5013343;28;20881;-64
2021/06/12 09:47:43;;;;;;;1.70;1.53;;;23.20;51.90;;;;;;5013824;28;20400;-65
2021/06/12 09:50:11;;;;;;;1.70;1.60;;;23.20;52.00;;;;;;5013829;28;20482;-65
2021/06/12 09:52:48;;;;;;;1.80;1.60;;;23.20;52.00;;;;;;5013300;28;20393;-65
2021/06/12 09:55:34;;;;;;;1.93;1.60;;;23.20;51.90;;;;;;5013709;28;20393;-65
2021/06/12 09:58:01;;;;;;;2.40;1.80;;;23.20;51.90;;;;;;5013424;28;20420;-65
2021/06/12 10:00:35;;;;;;;1.88;1.70;;;23.20;51.90;;;;;;5012078;28;20420;-65
2021/06/12 10:03:01;;;;;;;2.13;1.80;;;23.20;51.90;;;;;;5013548;28;20832;-65
2021/06/12 10:05:27;;;;;;;1.98;1.77;;;23.20;51.80;;;;;;5013537;28;20395;-65
2021/06/12 10:07:53;;;;;;;2.00;1.80;;;23.20;51.90;;;;;;5013532;28;20400;-64
2021/06/12 10:10:19;;;;;;;2.08;1.88;;;23.20;51.80;;;;;;5013332;28;20434;-65
2021/06/12 10:12:48;;;;;;;2.35;2.10;;;23.20;52.00;;;;;;5013028;28;20458;-64
2021/06/12 10:15:15;;;;;;;1.95;1.70;;;23.20;51.90;;;;;;5013317;28;20384;-65
2021/06/12 10:17:52;;;;;;;2.17;1.98;;;23.20;51.90;;;;;;5013245;28;20420;-64
2021/06/12 10:20:20;;;;;;;2.20;2.00;;;23.20;51.80;;;;;;5013254;28;20420;-64
2021/06/12 10:22:49;;;;;;;2.30;2.10;;;23.20;51.80;;;;;;5012809;28;20504;-64
2021/06/12 10:25:16;;;;;;;2.30;2.03;;;23.20;51.80;;;;;;5013169;28;20427;-64
2021/06/12 10:27:43;;;;;;;2.55;1.70;;;23.20;51.90;;;;;;5011857;28;20480;-65
2021/06/12 10:30:11;;;;;;;2.20;2.00;;;23.20;52.00;;;;;;5011805;28;20397;-64
2021/06/12 10:32:46;;;;;;;2.80;1.90;;;23.20;52.30;;;;;;5012632;28;20381;-65
2021/06/12 10:35:16;;;;;;;2.42;2.10;;;23.20;52.20;;;;;;5012991;28;20769;-64
2021/06/12 10:38:17;;;;;;;2.30;2.00;;;23.20;52.20;;;;;;5012931;28;20467;-65
2021/06/12 10:40:48;;;;;;;2.20;2.00;;;23.20;52.20;;;;;;5012544;28;20509;-65
2021/06/12 10:43:20;;;;;;;2.60;1.80;;;23.20;52.30;;;;;;5012450;28;20451;-64
2021/06/12 10:46:08;;;;;;;2.08;1.88;;;23.20;52.20;;;;;;5027430;28;20408;-64
2021/06/12 10:48:37;;;;;;;2.50;1.92;;;23.30;52.40;;;;;;5012213;28;20400;-65
2021/06/12 10:51:08;;;;;;;2.23;2.03;;;23.20;52.40;;;;;;5011542;28;20470;-65
2021/06/12 10:53:34;;;;;;;2.00;1.80;;;23.20;52.50;;;;;;5012626;28;20447;-64
2021/06/12 10:56:08;;;;;;;2.17;1.98;;;23.20;52.50;;;;;;5011775;28;20472;-64
2021/06/12 10:58:34;;;;;;;2.10;1.90;;;23.20;52.40;;;;;;5012369;28;20417;-65
2021/06/12 11:01:06;;;;;;;3.00;2.03;;;23.30;52.40;;;;;;5012293;28;20447;-65
2021/06/12 11:04:08;;;;;;;2.63;2.30;;;23.20;52.40;;;;;;5011090;28;20639;-65
2021/06/12 11:09:33;;;;;;;2.25;2.05;;;23.30;52.60;;;;;;5012447;28;20404;-64
2021/06/12 11:12:13;;;;;;;2.10;1.90;;;23.30;52.50;;;;;;5012401;28;20469;-65
2021/06/12 11:14:38;;;;;;;2.25;2.05;;;23.30;52.50;;;;;;5011851;28;20396;-64
2021/06/12 11:17:10;;;;;;;2.10;1.90;;;23.30;52.40;;;;;;5012329;28;20393;-64
2021/06/12 11:19:40;;;;;;;2.70;2.10;;;23.30;52.60;;;;;;5012183;28;20389;-65
2021/06/12 11:22:25;;;;;;;2.45;2.10;;;23.30;52.50;;;;;;5010964;28;20436;-65
2021/06/12 11:24:57;;;;;;;2.20;2.00;;;23.30;52.60;;;;;;5011837;28;20899;-65
2021/06/12 11:27:26;;;;;;;2.75;1.98;;;23.30;52.50;;;;;;5010779;28;20927;-65
2021/06/12 11:30:20;;;;;;;2.30;2.10;;;23.30;52.50;;;;;;5010749;28;20411;-65
2021/06/12 11:32:58;;;;;;;3.45;2.00;;;23.30;52.60;;;;;;5010336;28;20401;-65
2021/06/12 11:35:50;;;;;;;3.00;1.98;;;23.30;52.60;;;;;;5010672;28;20408;-65
2021/06/12 11:38:34;;;;;;;3.22;2.20;;;23.30;52.50;;;;;;5011869;28;20938;-65
2021/06/12 11:41:03;;;;;;;2.50;2.10;;;23.30;52.40;;;;;;5010347;28;20448;-65
2021/06/12 11:43:37;;;;;;;2.30;2.10;;;23.30;52.60;;;;;;5010288;28;20932;-65
2021/06/12 11:46:31;;;;;;;2.80;2.10;;;23.30;52.50;;;;;;5010303;28;20409;-65
2021/06/12 11:48:57;;;;;;;3.05;2.10;;;23.30;52.60;;;;;;5007339;28;20432;-65
2021/06/12 11:51:45;;;;;;;2.38;2.17;;;23.30;52.60;;;;;;5010470;28;20455;-65
2021/06/12 11:54:15;;;;;;;2.27;2.07;;;23.30;52.60;;;;;;5011733;28;20421;-65
2021/06/12 11:56:46;;;;;;;2.40;1.88;;;23.30;52.60;;;;;;5011364;28;20425;-65
2021/06/12 11:59:15;;;;;;;2.40;2.10;;;23.30;52.50;;;;;;5011445;28;20421;-64
2021/06/12 12:01:46;;;;;;;3.72;2.17;;;23.30;52.60;;;;;;5009756;28;20416;-64
2021/06/12 12:04:18;;;;;;;2.90;1.90;;;23.30;52.60;;;;;;5010204;28;20407;-65
2021/06/12 12:06:55;;;;;;;2.78;2.08;;;23.30;52.60;;;;;;5011177;28;20389;-65
2021/06/12 12:09:30;;;;;;;4.82;2.25;;;23.30;52.70;;;;;;5015750;28;20404;-65
2021/06/12 12:12:02;;;;;;;2.20;1.92;;;23.30;52.50;;;;;;5014294;28;20447;-65
2021/06/12 12:14:39;;;;;;;3.67;2.17;;;23.30;52.60;;;;;;5014178;28;20405;-64
2021/06/12 12:17:06;;;;;;;2.45;2.10;;;23.30;52.50;;;;;;5014141;28;20393;-65
2021/06/12 12:19:33;;;;;;;2.30;2.00;;;23.30;52.70;;;;;;5015505;28;20403;-64
2021/06/12 12:22:01;;;;;;;2.45;2.22;;;23.30;52.70;;;;;;5014253;28;20600;-64
2021/06/12 12:24:31;;;;;;;2.40;2.20;;;23.30;52.60;;;;;;5015376;28;20428;-64
2021/06/12 12:27:08;;;;;;;3.80;2.20;;;23.30;52.70;;;;;;5015033;28;20397;-64
2021/06/12 12:29:39;;;;;;;4.40;2.00;;;23.30;52.60;;;;;;5015288;28;20801;-64
2021/06/12 12:32:06;;;;;;;2.93;2.00;;;23.30;52.70;;;;;;5014042;28;20529;-64
2021/06/12 12:34:37;;;;;;;3.95;2.00;;;23.30;52.70;;;;;;5013654;28;20393;-64
2021/06/12 12:37:09;;;;;;;3.90;2.08;;;23.30;52.50;;;;;;5014956;28;20421;-64
2021/06/12 12:39:40;;;;;;;3.30;2.00;;;23.30;52.70;;;;;;5013923;28;20438;-64
2021/06/12 12:42:07;;;;;;;3.20;1.92;;;23.30;52.70;;;;;;5015045;28;20959;-64
2021/06/12 12:44:32;;;;;;;3.15;2.03;;;23.30;52.70;;;;;;5014393;28;20956;-65
2021/06/12 12:46:58;;;;;;;3.13;1.90;;;23.40;52.60;;;;;;5014776;28;20486;-64
2021/06/12 12:49:25;;;;;;;2.70;2.00;;;23.40;52.60;;;;;;5013430;28;20901;-65
2021/06/12 12:51:56;;;;;;;3.38;2.08;;;23.30;52.60;;;;;;5014943;28;20865;-65
2021/06/12 12:54:24;;;;;;;2.92;2.00;;;23.40;52.60;;;;;;5013525;28;20439;-65
2021/06/12 12:56:58;;;;;;;2.70;2.40;;;23.30;52.60;;;;;;5014380;28;20401;-65
2021/06/12 12:59:38;;;;;;;3.33;2.10;;;23.40;52.70;;;;;;5022292;28;20430;-65